Time;durP1;ratioP1;P1;durP2;ratioP2;P2;SDS_P1;SDS_P2;PMS_P1;PMS_P2;Temp;Humidity;BMP_temperature;BMP_pressure;BME280_temperature;BME280_humidity;BME280_pressure;Samples;Min_cycle;Max_cycle;Signal;HPM_P1;HPM_P2
2022/02/10 00:18:10;;;;;;;257.37;110.27;;;;;;;;;;4339780;33;20292;-52
2022/02/10 00:20:47;;;;;;;187.27;90.67;;;;;;;;;;4339641;33;20227;-55
2022/02/10 00:36:37;;;;;;;177.17;80.73;;;;;;;;;;4339494;33;20487;-54
2022/02/10 00:41:41;;;;;;;210.63;85.87;;;;;;;;;;4324843;33;20242;-54
2022/02/10 00:44:07;;;;;;;178.13;85.03;;;;;;;;;;4324575;33;20765;-54
2022/02/10 00:46:32;;;;;;;176.83;81.87;;;;;;;;;;4324966;33;20444;-54
2022/02/10 00:48:58;;;;;;;164.80;78.63;;;;;;;;;;4324796;33;20451;-53
2022/02/10 00:51:24;;;;;;;163.47;80.13;;;;;;;;;;4374650;32;20297;-53
2022/02/10 00:53:51;;;;;;;176.47;81.43;;;;;;;;;;4324778;33;20592;-53
2022/02/10 00:56:16;;;;;;;173.43;79.80;;;;;;;;;;4324608;33;20231;-53
2022/02/10 00:58:45;;;;;;;164.43;78.10;;;;;;;;;;4324704;33;20360;-54
2022/02/10 01:07:03;;;;;;;124.43;58.93;;;;;;;;;;4339105;33;20309;-53
2022/02/10 01:12:28;;;;;;;95.23;47.53;;;;;;;;;;4339169;33;20315;-53
2022/02/10 01:31:16;;;;;;;85.97;43.07;;;;;;;;;;4339023;33;20280;-53
2022/02/10 01:33:43;;;;;;;88.57;45.00;;;;;;;;;;4338910;33;20586;-54
2022/02/10 01:36:09;;;;;;;99.50;48.67;;;;;;;;;;4338831;33;20599;-53
2022/02/10 01:38:34;;;;;;;65.50;38.27;;;;;;;;;;4388929;32;20355;-54
2022/02/10 01:57:46;;;;;;;55.00;31.03;;;;;;;;;;4324359;33;20380;-54
2022/02/10 02:05:46;;;;;;;56.27;30.53;;;;;;;;;;4338884;33;20246;-54
2022/02/10 02:08:11;;;;;;;67.47;30.70;;;;;;;;;;4338676;32;20646;-53
2022/02/10 02:10:37;;;;;;;56.83;27.97;;;;;;;;;;4338732;33;20270;-55
2022/02/10 02:13:03;;;;;;;58.93;30.17;;;;;;;;;;4338716;33;20263;-53
2022/02/10 02:15:30;;;;;;;59.20;30.13;;;;;;;;;;4341107;33;20781;-54
2022/02/10 02:17:55;;;;;;;49.33;29.30;;;;;;;;;;4328665;33;20293;-53
2022/02/10 02:20:21;;;;;;;62.70;30.47;;;;;;;;;;4326524;33;20468;-57
2022/02/10 02:22:46;;;;;;;52.93;30.70;;;;;;;;;;4333654;33;20569;-53
2022/02/10 02:25:13;;;;;;;64.30;31.33;;;;;;;;;;4340996;33;20266;-54
2022/02/10 02:27:53;;;;;;;83.50;37.20;;;;;;;;;;4341030;33;20333;-54
2022/02/10 02:30:30;;;;;;;101.60;39.63;;;;;;;;;;4340958;33;20230;-54
2022/02/10 02:35:46;;;;;;;65.23;33.97;;;;;;;;;;4340798;33;20301;-54
2022/02/10 02:38:40;;;;;;;69.23;37.07;;;;;;;;;;4391197;32;20796;-54
2022/02/10 03:05:43;;;;;;;119.90;54.80;;;;;;;;;;4402897;32;20232;-55
2022/02/10 03:08:15;;;;;;;101.83;49.57;;;;;;;;;;4402783;32;21076;-54
2022/02/10 03:10:59;;;;;;;118.07;54.33;;;;;;;;;;4402661;32;20527;-55
2022/02/10 03:13:33;;;;;;;91.10;44.80;;;;;;;;;;4388751;32;20738;-54
2022/02/10 04:16:06;;;;;;;129.23;61.20;;;;;;;;;;4365973;32;20222;-54
2022/02/10 04:26:18;;;;;;;117.67;56.30;;;;;;;;;;4339482;33;20301;-54
2022/02/10 04:53:01;;;;;;;70.53;33.60;;;;;;;;;;4324461;33;20261;-53
2022/02/10 05:35:29;;;;;;;109.57;57.40;;;;;;;;;;4338830;33;20270;-54
2022/02/10 05:43:38;;;;;;;88.80;45.97;;;;;;;;;;4325668;33;20304;-55
2022/02/10 05:56:44;;;;;;;102.63;52.70;;;;;;;;;;4340755;33;20235;-54
2022/02/10 06:02:13;;;;;;;78.60;41.07;;;;;;;;;;4341267;33;20744;-53
2022/02/10 06:51:35;;;;;;;95.70;49.30;;;;;;;;;;4340647;33;20226;-54
2022/02/10 07:02:47;;;;;;;75.77;42.00;;;;;;;;;;4340790;33;20278;-53
2022/02/10 09:05:53;;;;;;;45.67;27.73;;;;;;;;;;4339072;33;20337;-56
2022/02/10 09:16:33;;;;;;;63.97;35.93;;;;;;;;;;4337851;33;20207;-56
2022/02/10 10:00:15;;;;;;;20.70;11.43;;;;;;;;;;4323520;33;20285;-54
2022/02/10 10:02:41;;;;;;;53.63;24.03;;;;;;;;;;4361841;32;20288;-55
2022/02/10 10:08:06;;;;;;;39.73;21.00;;;;;;;;;;4338534;33;20277;-56
2022/02/10 10:18:50;;;;;;;30.70;15.30;;;;;;;;;;4329714;32;20284;-54
2022/02/10 10:21:34;;;;;;;24.97;14.67;;;;;;;;;;4337917;33;20348;-56
2022/02/10 10:49:53;;;;;;;28.63;17.20;;;;;;;;;;4345863;32;20244;-56
2022/02/10 10:55:09;;;;;;;157.83;77.20;;;;;;;;;;4340698;33;20637;-54
2022/02/10 10:57:39;;;;;;;33.33;20.20;;;;;;;;;;4340766;33;20307;-55
2022/02/10 11:24:00;;;;;;;19.80;9.93;;;;;;;;;;4339739;33;20439;-55
2022/02/10 11:42:03;;;;;;;18.43;11.73;;;;;;;;;;4339470;33;20238;-55
2022/02/10 13:26:51;;;;;;;6.73;4.30;;;;;;;;;;4339030;33;20264;-55
2022/02/10 14:15:56;;;;;;;23.60;12.23;;;;;;;;;;4326633;32;20203;-55
2022/02/10 14:25:53;;;;;;;13.27;7.73;;;;;;;;;;4341187;32;20268;-55
2022/02/10 14:28:21;;;;;;;18.03;10.23;;;;;;;;;;4341628;32;20338;-54
2022/02/10 14:30:48;;;;;;;27.50;13.70;;;;;;;;;;4391757;32;20299;-55
2022/02/10 14:33:21;;;;;;;21.80;13.73;;;;;;;;;;4340351;32;20623;-54
2022/02/10 16:10:58;;;;;;;155.10;74.77;;;;;;;;;;4339537;33;20327;-55
2022/02/10 16:18:50;;;;;;;112.50;60.70;;;;;;;;;;4334348;33;20571;-55
2022/02/10 16:21:28;;;;;;;110.13;57.23;;;;;;;;;;4338673;32;20270;-54
2022/02/10 16:24:00;;;;;;;104.87;59.90;;;;;;;;;;4338143;32;20295;-54
2022/02/10 16:26:35;;;;;;;97.33;58.20;;;;;;;;;;4339582;33;20626;-53
2022/02/10 16:29:02;;;;;;;103.93;59.83;;;;;;;;;;4338550;33;20246;-54
2022/02/10 16:31:28;;;;;;;76.67;46.00;;;;;;;;;;4339398;32;20368;-55
2022/02/10 16:33:55;;;;;;;88.50;47.27;;;;;;;;;;4339306;33;20336;-56
2022/02/10 16:36:22;;;;;;;79.23;42.57;;;;;;;;;;4338353;33;20703;-54
2022/02/10 16:38:48;;;;;;;68.57;43.13;;;;;;;;;;4339014;33;20219;-54
2022/02/10 16:41:15;;;;;;;62.47;36.50;;;;;;;;;;4339529;33;20300;-55
2022/02/10 16:43:41;;;;;;;68.70;37.03;;;;;;;;;;4348863;32;20630;-55
2022/02/10 16:46:10;;;;;;;60.73;35.70;;;;;;;;;;4323726;33;20306;-55
2022/02/10 16:48:37;;;;;;;69.07;43.47;;;;;;;;;;4333788;33;20294;-55
2022/02/10 16:51:07;;;;;;;100.97;52.03;;;;;;;;;;4339205;32;20590;-54
2022/02/10 16:53:33;;;;;;;121.10;62.27;;;;;;;;;;4389399;32;20249;-54
2022/02/10 16:56:06;;;;;;;126.50;64.83;;;;;;;;;;4339314;32;20339;-54
2022/02/10 16:58:40;;;;;;;145.73;66.43;;;;;;;;;;4339308;32;20407;-54
2022/02/10 17:20:13;;;;;;;74.53;36.07;;;;;;;;;;4339123;33;20220;-53
2022/02/10 17:25:46;;;;;;;66.43;36.67;;;;;;;;;;4368940;32;20379;-54
2022/02/10 17:28:12;;;;;;;72.90;37.57;;;;;;;;;;4338836;32;20341;-56
2022/02/10 17:36:15;;;;;;;75.20;36.03;;;;;;;;;;4338846;32;20266;-53
2022/02/10 17:54:53;;;;;;;86.77;51.60;;;;;;;;;;4341681;33;20233;-54
2022/02/10 17:57:19;;;;;;;104.27;59.07;;;;;;;;;;4341615;33;20311;-54
2022/02/10 17:59:45;;;;;;;133.03;66.10;;;;;;;;;;4341709;33;20286;-56
2022/02/10 18:02:11;;;;;;;115.53;63.53;;;;;;;;;;4341257;33;20534;-54
2022/02/10 18:04:37;;;;;;;109.33;64.70;;;;;;;;;;4392094;32;20302;-55
2022/02/10 18:07:04;;;;;;;143.13;75.40;;;;;;;;;;4391738;32;20264;-54
2022/02/10 18:15:03;;;;;;;171.20;88.93;;;;;;;;;;4341325;33;20230;-55
2022/02/10 18:17:39;;;;;;;163.90;84.90;;;;;;;;;;4340802;33;20273;-56
2022/02/10 18:20:12;;;;;;;184.90;94.53;;;;;;;;;;4391639;32;20248;-55
2022/02/10 18:25:26;;;;;;;149.50;78.80;;;;;;;;;;4340499;33;20318;-55
2022/02/10 19:08:26;;;;;;;148.03;75.00;;;;;;;;;;4338993;33;20233;-54
2022/02/10 19:10:57;;;;;;;141.30;73.60;;;;;;;;;;4339933;33;20199;-54
2022/02/10 19:13:23;;;;;;;135.27;71.97;;;;;;;;;;4340820;33;20207;-54
2022/02/10 19:15:51;;;;;;;131.63;72.33;;;;;;;;;;4341003;32;20290;-55
2022/02/10 19:18:16;;;;;;;135.80;69.83;;;;;;;;;;4326535;32;20267;-53
2022/02/10 19:20:42;;;;;;;130.93;68.23;;;;;;;;;;4326149;33;20320;-54
2022/02/10 19:23:09;;;;;;;123.67;68.33;;;;;;;;;;4364881;32;20242;-53
2022/02/10 19:25:37;;;;;;;131.43;70.90;;;;;;;;;;4339683;32;20199;-53
2022/02/10 19:28:04;;;;;;;149.17;73.13;;;;;;;;;;4325911;33;20263;-54
2022/02/10 19:30:32;;;;;;;150.50;78.90;;;;;;;;;;4325871;32;20297;-55
2022/02/10 19:33:01;;;;;;;168.60;86.03;;;;;;;;;;4325401;33;20695;-55
2022/02/10 19:35:28;;;;;;;162.57;87.23;;;;;;;;;;4325724;33;20678;-53
2022/02/10 19:37:58;;;;;;;145.63;79.53;;;;;;;;;;4325884;33;20310;-54
2022/02/10 19:40:25;;;;;;;147.33;73.63;;;;;;;;;;4325655;33;20260;-54
2022/02/10 19:42:52;;;;;;;146.40;76.90;;;;;;;;;;4325916;33;20379;-53
2022/02/10 19:45:18;;;;;;;156.00;83.60;;;;;;;;;;4325179;33;20243;-54
2022/02/10 19:47:43;;;;;;;184.33;91.87;;;;;;;;;;4325774;33;20242;-54
2022/02/10 19:50:14;;;;;;;160.27;81.87;;;;;;;;;;4325784;33;20356;-54
2022/02/10 19:52:43;;;;;;;147.87;79.17;;;;;;;;;;4325843;32;20631;-54
2022/02/10 19:55:15;;;;;;;160.30;82.57;;;;;;;;;;4325281;32;20203;-54
2022/02/10 19:57:41;;;;;;;174.47;83.27;;;;;;;;;;4375665;32;20306;-56
2022/02/10 20:00:12;;;;;;;159.23;80.83;;;;;;;;;;4325408;33;20307;-54
2022/02/10 20:02:37;;;;;;;153.50;78.27;;;;;;;;;;4325492;33;20668;-55
2022/02/10 20:05:04;;;;;;;150.43;79.40;;;;;;;;;;4336275;33;20441;-54
2022/02/10 20:07:30;;;;;;;159.63;84.13;;;;;;;;;;4339323;33;20380;-54
2022/02/10 20:09:55;;;;;;;169.60;84.70;;;;;;;;;;4339093;33;20750;-56
2022/02/10 20:12:21;;;;;;;150.10;77.23;;;;;;;;;;4390589;32;20698;-55
2022/02/10 20:14:51;;;;;;;144.00;76.93;;;;;;;;;;4390510;32;20337;-55
2022/02/10 20:17:17;;;;;;;154.00;76.33;;;;;;;;;;4331526;33;20437;-53
2022/02/10 20:19:42;;;;;;;173.07;90.37;;;;;;;;;;4325610;33;20293;-56
2022/02/10 20:22:10;;;;;;;173.37;87.33;;;;;;;;;;4331865;32;20313;-54
2022/02/10 20:24:37;;;;;;;150.53;80.70;;;;;;;;;;4340197;33;20227;-55
2022/02/10 20:27:03;;;;;;;140.67;77.73;;;;;;;;;;4339949;33;20218;-55
2022/02/10 20:29:28;;;;;;;140.20;72.60;;;;;;;;;;4339492;33;20305;-55
2022/02/10 20:31:54;;;;;;;121.93;67.80;;;;;;;;;;4340171;33;20268;-54
2022/02/10 20:34:20;;;;;;;135.80;72.13;;;;;;;;;;4339553;33;20404;-56
2022/02/10 20:36:45;;;;;;;126.73;64.67;;;;;;;;;;4339929;33;20302;-54
2022/02/10 20:39:16;;;;;;;138.70;71.60;;;;;;;;;;4339761;33;20732;-56
2022/02/10 20:41:42;;;;;;;117.47;61.80;;;;;;;;;;4339647;33;20257;-54
2022/02/10 20:44:08;;;;;;;98.83;52.07;;;;;;;;;;4339657;33;20397;-55
2022/02/10 20:46:40;;;;;;;102.30;53.27;;;;;;;;;;4324888;33;20223;-54
2022/02/10 20:49:14;;;;;;;100.23;52.60;;;;;;;;;;4324725;33;20327;-54
2022/02/10 20:51:40;;;;;;;110.50;55.47;;;;;;;;;;4324875;33;20547;-54
2022/02/10 20:54:05;;;;;;;118.77;61.53;;;;;;;;;;4375098;32;20719;-54
2022/02/10 20:56:31;;;;;;;146.27;80.63;;;;;;;;;;4324778;33;20755;-54
2022/02/10 20:58:59;;;;;;;151.60;77.50;;;;;;;;;;4325195;33;20277;-55
2022/02/10 21:01:25;;;;;;;112.70;60.37;;;;;;;;;;4324799;33;20227;-53
2022/02/10 21:03:50;;;;;;;126.10;63.10;;;;;;;;;;4330833;33;20286;-54
2022/02/10 21:09:02;;;;;;;148.37;80.50;;;;;;;;;;4339438;33;20332;-54
2022/02/10 21:11:29;;;;;;;131.97;70.73;;;;;;;;;;4339407;33;20277;-54
2022/02/10 21:13:56;;;;;;;132.93;67.43;;;;;;;;;;4339493;33;20510;-54
2022/02/10 21:16:24;;;;;;;139.07;67.80;;;;;;;;;;4336650;32;20247;-54
2022/02/10 21:18:49;;;;;;;133.33;68.80;;;;;;;;;;4329445;32;20246;-54
2022/02/10 21:21:17;;;;;;;138.00;69.27;;;;;;;;;;4339298;33;20295;-53
2022/02/10 21:23:57;;;;;;;133.60;63.20;;;;;;;;;;4339233;33;20748;-54
2022/02/10 21:26:29;;;;;;;109.07;60.33;;;;;;;;;;4339127;33;20318;-54
2022/02/10 21:29:00;;;;;;;135.60;64.60;;;;;;;;;;4339251;33;20308;-55
2022/02/10 21:31:26;;;;;;;114.60;61.93;;;;;;;;;;4339297;33;20708;-54
2022/02/10 21:34:06;;;;;;;104.30;55.90;;;;;;;;;;4339193;33;20282;-55
2022/02/10 21:39:14;;;;;;;107.87;55.47;;;;;;;;;;4339113;33;20304;-54
2022/02/10 22:19:00;;;;;;;170.10;80.20;;;;;;;;;;4338752;33;20237;-53
2022/02/10 22:21:29;;;;;;;126.40;60.97;;;;;;;;;;4389227;32;20287;-53
2022/02/10 22:23:55;;;;;;;150.20;65.17;;;;;;;;;;4338664;33;20536;-54
2022/02/10 22:26:26;;;;;;;155.90;67.93;;;;;;;;;;4338697;33;20243;-52
2022/02/10 22:29:01;;;;;;;112.27;53.37;;;;;;;;;;4338858;33;20647;-53
2022/02/10 22:36:38;;;;;;;101.83;48.53;;;;;;;;;;4341011;33;20613;-52
2022/02/10 22:39:05;;;;;;;102.30;46.33;;;;;;;;;;4341135;33;20244;-53
2022/02/10 22:41:32;;;;;;;99.90;48.47;;;;;;;;;;4340993;33;20276;-52
2022/02/10 22:44:00;;;;;;;109.10;52.40;;;;;;;;;;4341250;33;20207;-53
2022/02/10 22:46:26;;;;;;;113.47;54.23;;;;;;;;;;4327270;32;20362;-52
2022/02/10 22:48:51;;;;;;;113.13;54.23;;;;;;;;;;4326589;32;20308;-56
2022/02/10 22:51:20;;;;;;;119.53;58.17;;;;;;;;;;4326476;32;20277;-53
2022/02/10 22:53:46;;;;;;;122.67;57.40;;;;;;;;;;4326391;32;20199;-53
2022/02/10 22:56:15;;;;;;;124.93;64.00;;;;;;;;;;4326149;32;20361;-53
2022/02/10 22:58:41;;;;;;;135.20;63.10;;;;;;;;;;4326571;33;20239;-54
2022/02/10 23:01:09;;;;;;;137.37;66.33;;;;;;;;;;4326044;32;20377;-53
2022/02/10 23:03:36;;;;;;;203.60;89.87;;;;;;;;;;4330534;32;20388;-53
2022/02/10 23:06:03;;;;;;;148.00;67.67;;;;;;;;;;4340632;33;20225;-53
2022/02/10 23:08:29;;;;;;;134.40;65.90;;;;;;;;;;4340973;33;20230;-53
2022/02/10 23:10:54;;;;;;;141.30;65.87;;;;;;;;;;4340522;32;20351;-52
2022/02/10 23:13:28;;;;;;;124.90;61.17;;;;;;;;;;4340586;32;20725;-53
2022/02/10 23:15:55;;;;;;;124.03;62.57;;;;;;;;;;4340734;33;20233;-53
2022/02/10 23:18:23;;;;;;;127.77;62.30;;;;;;;;;;4340549;33;20296;-53
2022/02/10 23:20:51;;;;;;;145.07;68.03;;;;;;;;;;4341096;33;20207;-53
2022/02/10 23:23:20;;;;;;;150.47;71.53;;;;;;;;;;4340447;33;20274;-53
2022/02/10 23:25:47;;;;;;;146.57;67.07;;;;;;;;;;4341219;33;20623;-54
2022/02/10 23:28:16;;;;;;;155.90;66.93;;;;;;;;;;4340534;33;20281;-53
2022/02/10 23:30:46;;;;;;;132.00;63.83;;;;;;;;;;4340503;33;20608;-53
2022/02/10 23:33:25;;;;;;;120.80;58.10;;;;;;;;;;4340643;33;20711;-54
2022/02/10 23:38:50;;;;;;;118.77;55.57;;;;;;;;;;4340507;33;20199;-55
2022/02/10 23:43:46;;;;;;;153.37;71.37;;;;;;;;;;4340703;33;20576;-52
2022/02/10 23:46:14;;;;;;;168.93;78.67;;;;;;;;;;4340127;33;20633;-54
2022/02/10 23:48:40;;;;;;;155.93;75.43;;;;;;;;;;4390900;32;20310;-53
2022/02/10 23:51:06;;;;;;;159.67;70.13;;;;;;;;;;4340286;33;20316;-54
2022/02/10 23:53:32;;;;;;;149.57;68.03;;;;;;;;;;4340249;33;20278;-54
2022/02/10 23:56:01;;;;;;;117.63;55.27;;;;;;;;;;4340005;33;20282;-52
2022/02/10 23:58:44;;;;;;;111.33;54.80;;;;;;;;;;4340251;32;20207;-53
